Terminal Aerodrome Forecast
Issued by NWS

Home | Current Version | Previous Version | Text Only | Print | Product List | Glossary On
Versions: 1 2 3 4 5 6 7 8 9 10 11 12 13 14 15 16 17 18 19 20 21 22 23
000
FTUS43 KLSX 071700
TAFCPS
TAF
KCPS 071734Z 0718/0818 25011KT P6SM SCT050 SCT100
     FM072000 25008KT P6SM VCTS SCT050CB SCT100
     FM080000 24005KT P6SM SCT080
     FM080800 25009KT P6SM VCTS BKN050CB
      TEMPO 0808/0810 VRB20G40KT 1SM +TSRA OVC015CB
     FM081000 27007KT 5SM -TSRA OVC060CB
     FM081200 26004KT P6SM -SHRA SCT030 OVC050
     FM081400 30008KT P6SM SCT050 BKN120=

USA.gov is the U.S. government's official web portal to all federal, state and local government web resources and services.